sensor_id;sensor_type;location;lat;lon;timestamp;temperature;humidity
58993;DHT22;44782;0.000;0.000;2023-11-19T00:02:05;18.50;65.50
58993;DHT22;44782;0.000;0.000;2023-11-19T00:04:23;18.50;65.50
58993;DHT22;44782;0.000;0.000;2023-11-19T00:06:39;18.50;65.60
58993;DHT22;44782;0.000;0.000;2023-11-19T00:08:54;18.50;65.40
58993;DHT22;44782;0.000;0.000;2023-11-19T00:11:10;18.50;65.60
58993;DHT22;44782;0.000;0.000;2023-11-19T00:13:26;18.50;65.60
58993;DHT22;44782;0.000;0.000;2023-11-19T00:15:42;18.50;65.30
58993;DHT22;44782;0.000;0.000;2023-11-19T00:17:57;18.50;65.50
58993;DHT22;44782;0.000;0.000;2023-11-19T00:20:15;18.50;65.50
58993;DHT22;44782;0.000;0.000;2023-11-19T00:22:31;18.50;65.50
58993;DHT22;44782;0.000;0.000;2023-11-19T00:24:46;18.50;65.60
58993;DHT22;44782;0.000;0.000;2023-11-19T00:27:02;18.50;65.30
58993;DHT22;44782;0.000;0.000;2023-11-19T00:29:18;18.50;65.40
58993;DHT22;44782;0.000;0.000;2023-11-19T00:31:35;18.50;65.30
58993;DHT22;44782;0.000;0.000;2023-11-19T00:33:51;18.50;65.30
58993;DHT22;44782;0.000;0.000;2023-11-19T00:36:07;18.40;65.20
58993;DHT22;44782;0.000;0.000;2023-11-19T00:38:22;18.50;65.20
58993;DHT22;44782;0.000;0.000;2023-11-19T00:40:38;18.50;65.20
58993;DHT22;44782;0.000;0.000;2023-11-19T00:42:54;18.50;65.20
58993;DHT22;44782;0.000;0.000;2023-11-19T00:45:09;18.40;65.00
58993;DHT22;44782;0.000;0.000;2023-11-19T00:47:26;18.40;65.00
58993;DHT22;44782;0.000;0.000;2023-11-19T00:49:41;18.40;65.10
58993;DHT22;44782;0.000;0.000;2023-11-19T00:51:58;18.40;65.10
58993;DHT22;44782;0.000;0.000;2023-11-19T00:54:14;18.40;65.00
58993;DHT22;44782;0.000;0.000;2023-11-19T00:56:30;18.40;65.10
58993;DHT22;44782;0.000;0.000;2023-11-19T00:58:45;18.50;65.10
58993;DHT22;44782;0.000;0.000;2023-11-19T01:01:01;18.40;65.90
58993;DHT22;44782;0.000;0.000;2023-11-19T01:03:16;18.40;65.10
58993;DHT22;44782;0.000;0.000;2023-11-19T01:05:34;18.50;65.00
58993;DHT22;44782;0.000;0.000;2023-11-19T01:07:50;18.50;65.10
58993;DHT22;44782;0.000;0.000;2023-11-19T01:10:07;18.40;65.00
58993;DHT22;44782;0.000;0.000;2023-11-19T01:12:24;18.40;65.00
58993;DHT22;44782;0.000;0.000;2023-11-19T01:14:40;18.40;65.00
58993;DHT22;44782;0.000;0.000;2023-11-19T01:16:55;18.40;65.10
58993;DHT22;44782;0.000;0.000;2023-11-19T01:19:11;18.50;65.10
58993;DHT22;44782;0.000;0.000;2023-11-19T01:21:26;18.40;65.00
58993;DHT22;44782;0.000;0.000;2023-11-19T01:23:42;18.40;65.00
58993;DHT22;44782;0.000;0.000;2023-11-19T01:26:01;18.40;64.90
58993;DHT22;44782;0.000;0.000;2023-11-19T01:28:16;18.40;65.00
58993;DHT22;44782;0.000;0.000;2023-11-19T01:30:32;18.40;64.80
58993;DHT22;44782;0.000;0.000;2023-11-19T01:32:48;18.50;64.90
58993;DHT22;44782;0.000;0.000;2023-11-19T01:35:04;18.40;64.80
58993;DHT22;44782;0.000;0.000;2023-11-19T01:37:19;18.40;64.90
58993;DHT22;44782;0.000;0.000;2023-11-19T01:39:35;18.40;65.00
58993;DHT22;44782;0.000;0.000;2023-11-19T01:41:51;18.40;64.70
58993;DHT22;44782;0.000;0.000;2023-11-19T01:44:07;18.40;64.60
58993;DHT22;44782;0.000;0.000;2023-11-19T01:46:22;18.40;64.60
58993;DHT22;44782;0.000;0.000;2023-11-19T01:48:44;18.40;64.50
58993;DHT22;44782;0.000;0.000;2023-11-19T01:51:00;18.30;64.20
58993;DHT22;44782;0.000;0.000;2023-11-19T01:53:17;18.30;64.40
58993;DHT22;44782;0.000;0.000;2023-11-19T01:55:33;18.30;64.50
58993;DHT22;44782;0.000;0.000;2023-11-19T01:57:49;18.30;64.40
58993;DHT22;44782;0.000;0.000;2023-11-19T02:00:07;18.30;64.40
58993;DHT22;44782;0.000;0.000;2023-11-19T02:02:26;18.30;64.40
58993;DHT22;44782;0.000;0.000;2023-11-19T02:04:42;18.20;64.40
58993;DHT22;44782;0.000;0.000;2023-11-19T02:06:58;18.30;64.40
58993;DHT22;44782;0.000;0.000;2023-11-19T02:09:14;18.20;64.40
58993;DHT22;44782;0.000;0.000;2023-11-19T02:11:30;18.20;64.40
58993;DHT22;44782;0.000;0.000;2023-11-19T02:13:45;18.20;64.40
58993;DHT22;44782;0.000;0.000;2023-11-19T02:16:01;18.20;64.40
58993;DHT22;44782;0.000;0.000;2023-11-19T02:18:26;18.20;64.40
58993;DHT22;44782;0.000;0.000;2023-11-19T02:20:43;18.20;64.20
58993;DHT22;44782;0.000;0.000;2023-11-19T02:22:59;18.20;64.40
58993;DHT22;44782;0.000;0.000;2023-11-19T02:25:29;18.20;64.40
58993;DHT22;44782;0.000;0.000;2023-11-19T02:27:57;18.20;64.10
58993;DHT22;44782;0.000;0.000;2023-11-19T02:30:14;18.20;64.20
58993;DHT22;44782;0.000;0.000;2023-11-19T02:32:30;18.10;64.40
58993;DHT22;44782;0.000;0.000;2023-11-19T02:34:46;18.10;64.40
58993;DHT22;44782;0.000;0.000;2023-11-19T02:37:01;18.10;64.40
58993;DHT22;44782;0.000;0.000;2023-11-19T02:39:18;18.10;64.40
58993;DHT22;44782;0.000;0.000;2023-11-19T02:41:36;18.10;64.40
58993;DHT22;44782;0.000;0.000;2023-11-19T02:43:54;18.10;64.50
58993;DHT22;44782;0.000;0.000;2023-11-19T02:46:10;18.10;64.60
58993;DHT22;44782;0.000;0.000;2023-11-19T02:48:26;18.10;64.60
58993;DHT22;44782;0.000;0.000;2023-11-19T02:50:42;18.10;64.60
58993;DHT22;44782;0.000;0.000;2023-11-19T02:52:58;18.10;64.60
58993;DHT22;44782;0.000;0.000;2023-11-19T02:55:13;18.10;64.70
58993;DHT22;44782;0.000;0.000;2023-11-19T02:57:32;18.10;64.60
58993;DHT22;44782;0.000;0.000;2023-11-19T02:59:49;18.10;64.60
58993;DHT22;44782;0.000;0.000;2023-11-19T03:02:05;18.10;64.70
58993;DHT22;44782;0.000;0.000;2023-11-19T03:04:22;18.10;64.70
58993;DHT22;44782;0.000;0.000;2023-11-19T03:06:38;18.10;64.70
58993;DHT22;44782;0.000;0.000;2023-11-19T03:08:55;18.10;64.80
58993;DHT22;44782;0.000;0.000;2023-11-19T03:11:11;18.10;64.70
58993;DHT22;44782;0.000;0.000;2023-11-19T03:13:27;18.00;64.70
58993;DHT22;44782;0.000;0.000;2023-11-19T03:15:43;18.10;64.80
58993;DHT22;44782;0.000;0.000;2023-11-19T03:17:59;18.00;64.70
58993;DHT22;44782;0.000;0.000;2023-11-19T03:20:15;18.00;64.70
58993;DHT22;44782;0.000;0.000;2023-11-19T03:22:32;18.10;64.80
58993;DHT22;44782;0.000;0.000;2023-11-19T03:24:51;18.10;65.00
58993;DHT22;44782;0.000;0.000;2023-11-19T03:27:07;18.00;64.90
58993;DHT22;44782;0.000;0.000;2023-11-19T03:29:23;18.00;64.90
58993;DHT22;44782;0.000;0.000;2023-11-19T03:31:42;18.00;65.00
58993;DHT22;44782;0.000;0.000;2023-11-19T03:33:58;18.00;65.00
58993;DHT22;44782;0.000;0.000;2023-11-19T03:36:14;18.00;65.00
58993;DHT22;44782;0.000;0.000;2023-11-19T03:38:30;18.00;65.00
58993;DHT22;44782;0.000;0.000;2023-11-19T03:40:45;18.00;65.00
58993;DHT22;44782;0.000;0.000;2023-11-19T03:43:01;18.00;65.00
58993;DHT22;44782;0.000;0.000;2023-11-19T03:45:16;18.00;65.00
58993;DHT22;44782;0.000;0.000;2023-11-19T03:47:32;18.00;65.00
58993;DHT22;44782;0.000;0.000;2023-11-19T03:49:49;18.00;65.00
58993;DHT22;44782;0.000;0.000;2023-11-19T03:52:05;18.00;65.10
58993;DHT22;44782;0.000;0.000;2023-11-19T03:54:20;18.00;65.10
58993;DHT22;44782;0.000;0.000;2023-11-19T03:56:38;18.00;65.10
58993;DHT22;44782;0.000;0.000;2023-11-19T03:58:54;18.00;65.10
58993;DHT22;44782;0.000;0.000;2023-11-19T04:01:12;18.00;65.10
58993;DHT22;44782;0.000;0.000;2023-11-19T04:03:31;17.90;65.00
58993;DHT22;44782;0.000;0.000;2023-11-19T04:05:46;18.00;65.10
58993;DHT22;44782;0.000;0.000;2023-11-19T04:08:02;18.00;65.00
58993;DHT22;44782;0.000;0.000;2023-11-19T04:10:18;17.90;65.00
58993;DHT22;44782;0.000;0.000;2023-11-19T04:12:34;17.90;65.00
58993;DHT22;44782;0.000;0.000;2023-11-19T04:14:50;17.90;65.00
58993;DHT22;44782;0.000;0.000;2023-11-19T04:17:06;17.90;65.00
58993;DHT22;44782;0.000;0.000;2023-11-19T04:19:21;17.90;65.00
58993;DHT22;44782;0.000;0.000;2023-11-19T04:21:40;17.90;65.00
58993;DHT22;44782;0.000;0.000;2023-11-19T04:23:56;17.90;65.00
58993;DHT22;44782;0.000;0.000;2023-11-19T04:26:12;17.90;65.00
58993;DHT22;44782;0.000;0.000;2023-11-19T04:28:27;17.90;65.00
58993;DHT22;44782;0.000;0.000;2023-11-19T04:30:43;17.90;65.00
58993;DHT22;44782;0.000;0.000;2023-11-19T04:32:59;17.90;65.00
58993;DHT22;44782;0.000;0.000;2023-11-19T04:35:15;17.90;65.10
58993;DHT22;44782;0.000;0.000;2023-11-19T04:37:30;17.90;65.00
58993;DHT22;44782;0.000;0.000;2023-11-19T04:39:46;17.90;65.00
58993;DHT22;44782;0.000;0.000;2023-11-19T04:42:02;17.90;65.00
58993;DHT22;44782;0.000;0.000;2023-11-19T04:44:18;17.90;65.00
58993;DHT22;44782;0.000;0.000;2023-11-19T04:46:34;17.90;65.00
58993;DHT22;44782;0.000;0.000;2023-11-19T04:48:49;17.90;65.00
58993;DHT22;44782;0.000;0.000;2023-11-19T04:51:06;17.90;65.00
58993;DHT22;44782;0.000;0.000;2023-11-19T04:53:21;17.90;65.00
58993;DHT22;44782;0.000;0.000;2023-11-19T04:55:37;17.90;65.00
58993;DHT22;44782;0.000;0.000;2023-11-19T04:57:54;17.80;65.80
58993;DHT22;44782;0.000;0.000;2023-11-19T05:00:10;17.90;65.00
58993;DHT22;44782;0.000;0.000;2023-11-19T05:02:26;17.90;65.00
58993;DHT22;44782;0.000;0.000;2023-11-19T05:04:45;17.90;65.00
58993;DHT22;44782;0.000;0.000;2023-11-19T05:07:02;17.90;65.00
58993;DHT22;44782;0.000;0.000;2023-11-19T05:09:17;17.90;65.00
58993;DHT22;44782;0.000;0.000;2023-11-19T05:11:34;17.90;65.00
58993;DHT22;44782;0.000;0.000;2023-11-19T05:13:50;17.90;65.00
58993;DHT22;44782;0.000;0.000;2023-11-19T05:16:06;17.90;65.00
58993;DHT22;44782;0.000;0.000;2023-11-19T05:18:21;17.80;65.00
58993;DHT22;44782;0.000;0.000;2023-11-19T05:20:37;17.90;65.00
58993;DHT22;44782;0.000;0.000;2023-11-19T05:22:53;17.90;65.00
58993;DHT22;44782;0.000;0.000;2023-11-19T05:25:09;17.90;65.80
58993;DHT22;44782;0.000;0.000;2023-11-19T05:27:25;17.90;65.00
58993;DHT22;44782;0.000;0.000;2023-11-19T05:29:42;17.90;65.00
58993;DHT22;44782;0.000;0.000;2023-11-19T05:31:59;17.90;65.00
58993;DHT22;44782;0.000;0.000;2023-11-19T05:34:14;17.90;65.00
58993;DHT22;44782;0.000;0.000;2023-11-19T05:36:30;17.90;65.00
58993;DHT22;44782;0.000;0.000;2023-11-19T05:38:46;17.90;65.60
58993;DHT22;44782;0.000;0.000;2023-11-19T05:41:01;18.00;65.10
58993;DHT22;44782;0.000;0.000;2023-11-19T05:43:17;18.00;65.00
58993;DHT22;44782;0.000;0.000;2023-11-19T05:45:33;18.00;65.10
58993;DHT22;44782;0.000;0.000;2023-11-19T05:47:48;18.10;65.00
58993;DHT22;44782;0.000;0.000;2023-11-19T05:50:04;18.10;65.00
58993;DHT22;44782;0.000;0.000;2023-11-19T05:52:21;18.10;65.00
58993;DHT22;44782;0.000;0.000;2023-11-19T05:54:38;18.10;65.00
58993;DHT22;44782;0.000;0.000;2023-11-19T05:56:54;18.20;65.00
58993;DHT22;44782;0.000;0.000;2023-11-19T05:59:09;18.20;65.00
58993;DHT22;44782;0.000;0.000;2023-11-19T06:01:30;18.20;65.00
58993;DHT22;44782;0.000;0.000;2023-11-19T06:03:46;18.30;65.00
58993;DHT22;44782;0.000;0.000;2023-11-19T06:06:05;18.30;64.90
58993;DHT22;44782;0.000;0.000;2023-11-19T06:08:21;18.30;64.90
58993;DHT22;44782;0.000;0.000;2023-11-19T06:10:39;18.30;64.80
58993;DHT22;44782;0.000;0.000;2023-11-19T06:12:54;18.40;64.80
58993;DHT22;44782;0.000;0.000;2023-11-19T06:15:12;18.30;64.80
58993;DHT22;44782;0.000;0.000;2023-11-19T06:17:28;18.40;64.80
58993;DHT22;44782;0.000;0.000;2023-11-19T06:19:44;18.40;64.70
58993;DHT22;44782;0.000;0.000;2023-11-19T06:22:00;18.40;64.80
58993;DHT22;44782;0.000;0.000;2023-11-19T06:24:16;18.40;64.70
58993;DHT22;44782;0.000;0.000;2023-11-19T06:26:31;18.50;64.70
58993;DHT22;44782;0.000;0.000;2023-11-19T06:28:47;18.40;64.60
58993;DHT22;44782;0.000;0.000;2023-11-19T06:31:03;18.40;64.60
58993;DHT22;44782;0.000;0.000;2023-11-19T06:33:19;18.50;65.40
58993;DHT22;44782;0.000;0.000;2023-11-19T06:35:34;18.50;64.60
58993;DHT22;44782;0.000;0.000;2023-11-19T06:37:53;18.50;64.60
58993;DHT22;44782;0.000;0.000;2023-11-19T06:40:09;18.50;64.60
58993;DHT22;44782;0.000;0.000;2023-11-19T06:42:24;18.50;64.60
58993;DHT22;44782;0.000;0.000;2023-11-19T06:44:40;18.50;64.50
58993;DHT22;44782;0.000;0.000;2023-11-19T06:46:56;18.50;64.50
58993;DHT22;44782;0.000;0.000;2023-11-19T06:49:11;18.50;64.40
58993;DHT22;44782;0.000;0.000;2023-11-19T06:51:27;18.50;64.40
58993;DHT22;44782;0.000;0.000;2023-11-19T06:53:43;18.50;64.40
58993;DHT22;44782;0.000;0.000;2023-11-19T06:55:59;18.50;64.40
58993;DHT22;44782;0.000;0.000;2023-11-19T06:58:15;18.50;64.40
58993;DHT22;44782;0.000;0.000;2023-11-19T07:00:33;18.50;64.30
58993;DHT22;44782;0.000;0.000;2023-11-19T07:02:51;18.50;64.30
58993;DHT22;44782;0.000;0.000;2023-11-19T07:05:07;18.50;64.30
58993;DHT22;44782;0.000;0.000;2023-11-19T07:07:23;18.50;64.30
58993;DHT22;44782;0.000;0.000;2023-11-19T07:09:39;18.50;64.30
58993;DHT22;44782;0.000;0.000;2023-11-19T07:11:54;18.50;64.20
58993;DHT22;44782;0.000;0.000;2023-11-19T07:14:11;18.50;64.20
58993;DHT22;44782;0.000;0.000;2023-11-19T07:16:27;18.50;64.20
58993;DHT22;44782;0.000;0.000;2023-11-19T07:18:42;18.50;64.20
58993;DHT22;44782;0.000;0.000;2023-11-19T07:20:59;18.50;64.20
58993;DHT22;44782;0.000;0.000;2023-11-19T07:23:15;18.50;64.20
58993;DHT22;44782;0.000;0.000;2023-11-19T07:25:31;18.50;64.20
58993;DHT22;44782;0.000;0.000;2023-11-19T07:27:47;18.50;64.20
58993;DHT22;44782;0.000;0.000;2023-11-19T07:30:04;18.50;64.10
58993;DHT22;44782;0.000;0.000;2023-11-19T07:32:20;18.50;64.10
58993;DHT22;44782;0.000;0.000;2023-11-19T07:34:35;18.50;63.80
58993;DHT22;44782;0.000;0.000;2023-11-19T07:36:51;18.50;64.10
58993;DHT22;44782;0.000;0.000;2023-11-19T07:39:07;18.40;63.80
58993;DHT22;44782;0.000;0.000;2023-11-19T07:41:23;18.50;63.80
58993;DHT22;44782;0.000;0.000;2023-11-19T07:43:44;18.40;63.90
58993;DHT22;44782;0.000;0.000;2023-11-19T07:46:00;18.50;63.70
58993;DHT22;44782;0.000;0.000;2023-11-19T07:48:15;18.50;63.80
58993;DHT22;44782;0.000;0.000;2023-11-19T07:50:33;18.40;63.80
58993;DHT22;44782;0.000;0.000;2023-11-19T07:52:49;18.40;63.70
58993;DHT22;44782;0.000;0.000;2023-11-19T07:55:04;18.40;63.90
58993;DHT22;44782;0.000;0.000;2023-11-19T07:57:20;18.40;64.00
58993;DHT22;44782;0.000;0.000;2023-11-19T07:59:36;18.40;63.80
58993;DHT22;44782;0.000;0.000;2023-11-19T08:01:52;18.40;64.20
58993;DHT22;44782;0.000;0.000;2023-11-19T08:04:07;18.40;64.20
58993;DHT22;44782;0.000;0.000;2023-11-19T08:06:23;18.40;64.10
58993;DHT22;44782;0.000;0.000;2023-11-19T08:08:39;18.40;64.20
58993;DHT22;44782;0.000;0.000;2023-11-19T08:10:54;18.40;64.30
58993;DHT22;44782;0.000;0.000;2023-11-19T08:13:12;18.30;64.20
58993;DHT22;44782;0.000;0.000;2023-11-19T08:15:27;18.40;64.40
58993;DHT22;44782;0.000;0.000;2023-11-19T08:17:43;18.30;64.40
58993;DHT22;44782;0.000;0.000;2023-11-19T08:19:59;18.30;64.30
58993;DHT22;44782;0.000;0.000;2023-11-19T08:22:15;18.30;64.60
58993;DHT22;44782;0.000;0.000;2023-11-19T08:24:32;18.40;64.70
58993;DHT22;44782;0.000;0.000;2023-11-19T08:26:47;18.40;64.80
58993;DHT22;44782;0.000;0.000;2023-11-19T08:29:03;18.40;64.80
58993;DHT22;44782;0.000;0.000;2023-11-19T08:31:19;18.30;64.70
58993;DHT22;44782;0.000;0.000;2023-11-19T08:33:34;18.40;64.90
58993;DHT22;44782;0.000;0.000;2023-11-19T08:35:51;18.30;64.80
58993;DHT22;44782;0.000;0.000;2023-11-19T08:38:06;18.30;64.80
58993;DHT22;44782;0.000;0.000;2023-11-19T08:40:22;18.30;64.90
58993;DHT22;44782;0.000;0.000;2023-11-19T08:42:37;18.30;65.00
58993;DHT22;44782;0.000;0.000;2023-11-19T08:44:55;18.30;65.80
58993;DHT22;44782;0.000;0.000;2023-11-19T08:47:11;18.30;65.10
58993;DHT22;44782;0.000;0.000;2023-11-19T08:49:27;18.30;65.10
58993;DHT22;44782;0.000;0.000;2023-11-19T08:51:43;18.30;65.10
58993;DHT22;44782;0.000;0.000;2023-11-19T08:53:59;18.30;65.10
58993;DHT22;44782;0.000;0.000;2023-11-19T08:56:15;18.30;65.30
58993;DHT22;44782;0.000;0.000;2023-11-19T08:58:31;18.30;65.20
58993;DHT22;44782;0.000;0.000;2023-11-19T09:00:46;18.30;65.30
58993;DHT22;44782;0.000;0.000;2023-11-19T09:03:02;18.30;65.30
58993;DHT22;44782;0.000;0.000;2023-11-19T09:05:18;18.30;65.20
58993;DHT22;44782;0.000;0.000;2023-11-19T09:07:34;18.30;65.30
58993;DHT22;44782;0.000;0.000;2023-11-19T09:09:49;18.30;65.50
58993;DHT22;44782;0.000;0.000;2023-11-19T09:12:05;18.30;65.30
58993;DHT22;44782;0.000;0.000;2023-11-19T09:14:21;18.20;65.20
58993;DHT22;44782;0.000;0.000;2023-11-19T09:16:41;18.30;65.10
58993;DHT22;44782;0.000;0.000;2023-11-19T09:18:56;18.30;65.10
58993;DHT22;44782;0.000;0.000;2023-11-19T09:21:13;18.30;65.40
58993;DHT22;44782;0.000;0.000;2023-11-19T09:23:29;18.20;65.20
58993;DHT22;44782;0.000;0.000;2023-11-19T09:25:48;18.30;65.20
58993;DHT22;44782;0.000;0.000;2023-11-19T09:28:03;18.30;65.20
58993;DHT22;44782;0.000;0.000;2023-11-19T09:30:19;18.30;65.20
58993;DHT22;44782;0.000;0.000;2023-11-19T09:32:35;18.30;65.30
58993;DHT22;44782;0.000;0.000;2023-11-19T09:34:52;18.30;66.10
58993;DHT22;44782;0.000;0.000;2023-11-19T09:37:08;18.30;65.20
58993;DHT22;44782;0.000;0.000;2023-11-19T09:39:24;18.30;65.10
58993;DHT22;44782;0.000;0.000;2023-11-19T09:41:41;18.30;65.20
58993;DHT22;44782;0.000;0.000;2023-11-19T09:43:57;18.30;65.30
58993;DHT22;44782;0.000;0.000;2023-11-19T09:46:14;18.30;65.30
58993;DHT22;44782;0.000;0.000;2023-11-19T09:48:32;18.30;65.20
58993;DHT22;44782;0.000;0.000;2023-11-19T09:50:48;18.30;65.30
58993;DHT22;44782;0.000;0.000;2023-11-19T09:53:03;18.30;65.20
58993;DHT22;44782;0.000;0.000;2023-11-19T09:55:19;18.30;65.20
58993;DHT22;44782;0.000;0.000;2023-11-19T09:57:38;18.30;65.80
58993;DHT22;44782;0.000;0.000;2023-11-19T09:59:54;18.30;65.60
58993;DHT22;44782;0.000;0.000;2023-11-19T10:02:10;18.30;65.40
58993;DHT22;44782;0.000;0.000;2023-11-19T10:04:29;18.30;66.10
58993;DHT22;44782;0.000;0.000;2023-11-19T10:06:45;18.30;65.20
58993;DHT22;44782;0.000;0.000;2023-11-19T10:09:01;18.20;65.00
58993;DHT22;44782;0.000;0.000;2023-11-19T10:11:20;18.30;65.20
58993;DHT22;44782;0.000;0.000;2023-11-19T10:13:36;18.20;65.30
58993;DHT22;44782;0.000;0.000;2023-11-19T10:15:56;18.30;65.30
58993;DHT22;44782;0.000;0.000;2023-11-19T10:18:14;18.30;65.30
58993;DHT22;44782;0.000;0.000;2023-11-19T10:20:35;18.30;66.00
58993;DHT22;44782;0.000;0.000;2023-11-19T10:22:55;18.30;65.60
58993;DHT22;44782;0.000;0.000;2023-11-19T10:25:27;18.30;66.20
58993;DHT22;44782;0.000;0.000;2023-11-19T10:27:43;18.30;65.00
58993;DHT22;44782;0.000;0.000;2023-11-19T10:30:00;18.30;65.60
58993;DHT22;44782;0.000;0.000;2023-11-19T10:32:16;18.30;66.20
58993;DHT22;44782;0.000;0.000;2023-11-19T10:34:31;18.30;65.60
58993;DHT22;44782;0.000;0.000;2023-11-19T10:36:47;18.30;65.60
58993;DHT22;44782;0.000;0.000;2023-11-19T10:39:03;18.30;65.40
58993;DHT22;44782;0.000;0.000;2023-11-19T10:41:29;18.30;65.50
58993;DHT22;44782;0.000;0.000;2023-11-19T10:43:45;18.30;65.10
58993;DHT22;44782;0.000;0.000;2023-11-19T10:46:11;18.20;65.50
58993;DHT22;44782;0.000;0.000;2023-11-19T10:48:27;18.30;65.60
58993;DHT22;44782;0.000;0.000;2023-11-19T10:50:44;18.20;65.20
58993;DHT22;44782;0.000;0.000;2023-11-19T10:53:00;18.20;65.30
58993;DHT22;44782;0.000;0.000;2023-11-19T10:55:21;18.20;65.40
58993;DHT22;44782;0.000;0.000;2023-11-19T10:57:43;18.30;65.30
58993;DHT22;44782;0.000;0.000;2023-11-19T11:00:02;18.20;65.70
58993;DHT22;44782;0.000;0.000;2023-11-19T11:02:27;18.20;66.20
58993;DHT22;44782;0.000;0.000;2023-11-19T11:04:44;18.20;65.70
58993;DHT22;44782;0.000;0.000;2023-11-19T11:07:03;18.30;65.50
58993;DHT22;44782;0.000;0.000;2023-11-19T11:09:20;18.30;65.60
58993;DHT22;44782;0.000;0.000;2023-11-19T11:11:36;18.20;65.50
58993;DHT22;44782;0.000;0.000;2023-11-19T11:13:55;18.30;65.50
58993;DHT22;44782;0.000;0.000;2023-11-19T11:16:12;18.30;65.60
58993;DHT22;44782;0.000;0.000;2023-11-19T11:18:29;18.20;65.30
58993;DHT22;44782;0.000;0.000;2023-11-19T11:20:45;18.20;65.40
58993;DHT22;44782;0.000;0.000;2023-11-19T11:31:13;18.30;65.60
58993;DHT22;44782;0.000;0.000;2023-11-19T11:36:34;18.20;65.60
58993;DHT22;44782;0.000;0.000;2023-11-19T11:38:50;18.20;65.90
58993;DHT22;44782;0.000;0.000;2023-11-19T11:41:21;18.20;65.60
58993;DHT22;44782;0.000;0.000;2023-11-19T11:43:50;18.20;65.20
58993;DHT22;44782;0.000;0.000;2023-11-19T11:46:06;18.20;65.60
58993;DHT22;44782;0.000;0.000;2023-11-19T11:48:24;18.20;65.70
58993;DHT22;44782;0.000;0.000;2023-11-19T11:50:51;18.20;66.10
58993;DHT22;44782;0.000;0.000;2023-11-19T11:53:13;18.20;65.40
58993;DHT22;44782;0.000;0.000;2023-11-19T11:55:37;18.20;65.50
58993;DHT22;44782;0.000;0.000;2023-11-19T11:58:07;18.20;65.50
58993;DHT22;44782;0.000;0.000;2023-11-19T12:00:39;18.20;65.70
58993;DHT22;44782;0.000;0.000;2023-11-19T12:03:05;18.30;65.30
58993;DHT22;44782;0.000;0.000;2023-11-19T12:05:24;18.20;65.60
58993;DHT22;44782;0.000;0.000;2023-11-19T12:07:40;18.20;66.10
58993;DHT22;44782;0.000;0.000;2023-11-19T12:10:07;18.20;65.70
58993;DHT22;44782;0.000;0.000;2023-11-19T12:12:26;18.20;65.80
58993;DHT22;44782;0.000;0.000;2023-11-19T12:15:21;18.20;65.60
58993;DHT22;44782;0.000;0.000;2023-11-19T12:17:47;18.20;64.70
58993;DHT22;44782;0.000;0.000;2023-11-19T12:20:06;18.20;65.40
58993;DHT22;44782;0.000;0.000;2023-11-19T12:22:26;18.20;65.70
58993;DHT22;44782;0.000;0.000;2023-11-19T12:24:42;18.20;66.00
58993;DHT22;44782;0.000;0.000;2023-11-19T12:26:58;18.20;65.60
58993;DHT22;44782;0.000;0.000;2023-11-19T12:29:14;18.20;65.30
58993;DHT22;44782;0.000;0.000;2023-11-19T12:31:30;18.20;65.40
58993;DHT22;44782;0.000;0.000;2023-11-19T12:33:46;18.20;65.60
58993;DHT22;44782;0.000;0.000;2023-11-19T12:36:03;18.20;65.40
58993;DHT22;44782;0.000;0.000;2023-11-19T12:38:25;18.20;66.00
58993;DHT22;44782;0.000;0.000;2023-11-19T12:40:41;18.20;65.20
58993;DHT22;44782;0.000;0.000;2023-11-19T12:42:56;18.20;65.40
58993;DHT22;44782;0.000;0.000;2023-11-19T12:45:13;18.20;65.40
58993;DHT22;44782;0.000;0.000;2023-11-19T12:47:29;18.20;65.30
58993;DHT22;44782;0.000;0.000;2023-11-19T12:49:58;18.20;65.80
58993;DHT22;44782;0.000;0.000;2023-11-19T12:52:13;18.20;64.70
58993;DHT22;44782;0.000;0.000;2023-11-19T12:54:34;18.20;65.30
58993;DHT22;44782;0.000;0.000;2023-11-19T12:56:53;18.20;65.60
58993;DHT22;44782;0.000;0.000;2023-11-19T12:59:12;18.20;65.60
58993;DHT22;44782;0.000;0.000;2023-11-19T13:01:28;18.20;65.70
58993;DHT22;44782;0.000;0.000;2023-11-19T13:03:44;18.20;65.70
58993;DHT22;44782;0.000;0.000;2023-11-19T13:06:08;18.20;66.80
58993;DHT22;44782;0.000;0.000;2023-11-19T13:08:26;18.30;67.20
58993;DHT22;44782;0.000;0.000;2023-11-19T13:10:52;18.30;67.20
58993;DHT22;44782;0.000;0.000;2023-11-19T13:13:09;18.30;66.80
58993;DHT22;44782;0.000;0.000;2023-11-19T13:15:24;18.30;66.90
58993;DHT22;44782;0.000;0.000;2023-11-19T13:17:41;18.30;67.20
58993;DHT22;44782;0.000;0.000;2023-11-19T13:19:57;18.30;67.40
58993;DHT22;44782;0.000;0.000;2023-11-19T13:22:12;18.30;66.70
58993;DHT22;44782;0.000;0.000;2023-11-19T13:24:28;18.30;67.20
58993;DHT22;44782;0.000;0.000;2023-11-19T13:26:43;18.30;67.20
58993;DHT22;44782;0.000;0.000;2023-11-19T13:28:59;18.30;67.20
58993;DHT22;44782;0.000;0.000;2023-11-19T13:31:15;18.30;67.40
58993;DHT22;44782;0.000;0.000;2023-11-19T13:33:30;18.30;67.10
58993;DHT22;44782;0.000;0.000;2023-11-19T13:35:46;18.40;67.20
58993;DHT22;44782;0.000;0.000;2023-11-19T13:38:02;18.40;67.20
58993;DHT22;44782;0.000;0.000;2023-11-19T13:40:18;18.40;66.80
58993;DHT22;44782;0.000;0.000;2023-11-19T13:42:34;18.40;66.70
58993;DHT22;44782;0.000;0.000;2023-11-19T13:44:50;18.40;66.50
58993;DHT22;44782;0.000;0.000;2023-11-19T13:47:06;18.40;66.60
58993;DHT22;44782;0.000;0.000;2023-11-19T13:49:21;18.40;67.40
58993;DHT22;44782;0.000;0.000;2023-11-19T13:51:37;18.40;66.40
58993;DHT22;44782;0.000;0.000;2023-11-19T13:53:52;18.40;66.50
58993;DHT22;44782;0.000;0.000;2023-11-19T13:56:09;18.40;66.10
58993;DHT22;44782;0.000;0.000;2023-11-19T13:58:25;18.40;66.20
58993;DHT22;44782;0.000;0.000;2023-11-19T14:00:40;18.40;66.30
58993;DHT22;44782;0.000;0.000;2023-11-19T14:02:57;18.40;65.80
58993;DHT22;44782;0.000;0.000;2023-11-19T14:05:14;18.40;65.70
58993;DHT22;44782;0.000;0.000;2023-11-19T14:07:32;18.40;65.60
58993;DHT22;44782;0.000;0.000;2023-11-19T14:09:48;18.40;65.30
58993;DHT22;44782;0.000;0.000;2023-11-19T14:12:04;18.40;65.20
58993;DHT22;44782;0.000;0.000;2023-11-19T14:14:19;18.40;65.00
58993;DHT22;44782;0.000;0.000;2023-11-19T14:16:35;18.40;65.00
58993;DHT22;44782;0.000;0.000;2023-11-19T14:18:51;18.40;65.00
58993;DHT22;44782;0.000;0.000;2023-11-19T14:21:07;18.30;64.60
58993;DHT22;44782;0.000;0.000;2023-11-19T14:23:23;18.40;64.80
58993;DHT22;44782;0.000;0.000;2023-11-19T14:25:39;18.40;64.60
58993;DHT22;44782;0.000;0.000;2023-11-19T14:27:55;18.40;64.50
58993;DHT22;44782;0.000;0.000;2023-11-19T14:30:12;18.40;64.60
58993;DHT22;44782;0.000;0.000;2023-11-19T14:32:31;18.30;65.00
58993;DHT22;44782;0.000;0.000;2023-11-19T14:34:47;18.40;64.60
58993;DHT22;44782;0.000;0.000;2023-11-19T14:37:02;18.30;64.40
58993;DHT22;44782;0.000;0.000;2023-11-19T14:39:18;18.40;64.30
58993;DHT22;44782;0.000;0.000;2023-11-19T14:41:34;18.40;64.20
58993;DHT22;44782;0.000;0.000;2023-11-19T14:43:49;18.30;64.10
58993;DHT22;44782;0.000;0.000;2023-11-19T14:46:05;18.30;64.30
58993;DHT22;44782;0.000;0.000;2023-11-19T14:48:22;18.30;64.40
58993;DHT22;44782;0.000;0.000;2023-11-19T14:50:37;18.40;64.60